Haines, AK

4:16 AM AKST on January 25, 2015 (GMT -0900)
Pyramid Island View | Change Station
CLOSE
Current Station
Personal Weather Station
Location: Haines, AK
Elevation: 72 ft
Nearby Weather Stations

Elev 72 ft 59.20 °N, 135.44 °W | Updated 26 seconds ago

Overcast
Overcast
39.9 °F
Feels Like 33 °F
N
10.1
Wind Variable Wind from South
Gusts 10.1 mph

Today
High -- | Low -- °F
--% Chance of Precip.
Yesterday
High -- | Low -- °F
Precip. -- in
8:26 AM 4:02 PM
Waxing Crescent, 32% visible
Pressure 29.41 in
Visibility 10.0 miles
Clouds Overcast 900 ft
Windchill 33 °F
Dew Point 39 °F
Humidity 98%
Rainfall 0.05 in
Snow Depth Not available.
UV 0 out of 12
Pollen Not available.
Air Quality Not available.
Flu Activity Not available.
SPECI PAHN 251311Z AUTO 08009G18KT 10SM OVC009 04/03 A2941 RMK AO2 T00440033 TSNO

More Conditions Fewer Conditions

Pressure 29.41 in
Visibility 10.0 miles
Clouds Overcast 900 ft
Windchill 33 °F
Dew Point 39 °F
Humidity 98%
Rainfall 0.05 in
Snow Depth Not available.
UV 0 out of 12
Pollen Not available.
Air Quality Not available.
Flu Activity Not available.
SPECI PAHN 251311Z AUTO 08009G18KT 10SM OVC009 04/03 A2941 RMK AO2 T00440033 TSNO

More Conditions Fewer Conditions

10-Day Weather Forecast

Almanac

Astronomy

Jan. 25, 2015 Rise Set
Actual Time
Civil Twilight
Nautical Twilight
Astronomical Twilight
Moon
Length of Visible Light
Length of Day
Tomorrow will be .
, % of the Moon is Illuminated

Today's Extremes

State Highs State Lows

Community

WunderPhotos

Upload Photos

1,789,881 photos uploaded!

WunderBlogs® & News

Nearby

Air Quality

  Air Quality AQ Index Pollutant
Not available.

Snow Depth

Station Depth Elevation

Earthquake Activity

City Distance Mag. Time & Date
Minimum magnitude displayed is 2.5.

Coastal Water Temperatures

Place Temperature

Nearby Weather Stations